Omskiy-141 — UGZK — position and weather

sailwx.info

Track history (hours):
 
Tides and Currents Weather Stations Pressure Air Temp Water Temp Dewpoint Dewpoint Depression Visibility Wind Speed Wind Dir Waves Ship Positions

Omskiy-141

Last reported at 2014-Aug-20 22:21 UTC. Time now 2014-Aug-31 02:33 UTC.
Position N 59°57' E 030°24'.
Warning: this ship's position is 10 days out of date.

Length 108 m; draft 2.6 m.

Type: Cargo ship. MMSI: 273310600.

Date/timePositionNaut miles runAvg speedWind from/ knotsBaromVisibWave heightAir tempDewpointWater temp
2014-Aug-20 22:21N 59°57' E 030°24'4 5.4
2014-Aug-20 21:33N 59°55' E 030°16'2 1.5
2014-Aug-20 20:28N 59°54' E 030°14'0 0.0
2014-Aug-20 17:13N 59°54' E 030°14'0 0.0
2014-Aug-20 16:31N 59°54' E 030°14'0 0.0
2014-Aug-20 15:25N 59°54' E 030°14'0 0.0
2014-Aug-20 14:07N 59°54' E 030°14'0 0.0
2014-Aug-20 13:25N 59°54' E 030°14'0 0.0
2014-Aug-20 12:13N 59°54' E 030°14'0 0.0
2014-Aug-20 10:19N 59°54' E 030°14'0 0.0
2014-Aug-20 09:19N 59°54' E 030°14'0 0.0
2014-Aug-20 08:16N 59°54' E 030°14'0 0.0
2014-Aug-20 07:28N 59°54' E 030°14'103 4.9
2014-Aug-19 10:26N 59°59' E 026°47'8 8.1
2014-Aug-19 09:28N 59°58' E 026°32'  
2014-Aug-16 07:33N 60°00' E 026°22'8 8.1
2014-Aug-16 06:33N 60°02' E 026°38'106 7.5
2014-Aug-15 16:33N 59°56' E 030°09'3 0.2
2014-Aug-15 00:22N 59°54' E 030°13'6 7.5
2014-Aug-14 23:33N 59°57' E 030°23'  
Track history (hours):
 
Tides and Currents Weather Stations Pressure Air Temp Water Temp Dewpoint Dewpoint Depression Visibility Wind Speed Wind Dir Waves Ship Positions

Omskiy-141

Last reported at 2014-Aug-20 22:21 UTC. Time now 2014-Aug-31 02:33 UTC.
Position N 59°57' E 030°24'.
Warning: this ship's position is 10 days out of date.

Length 108 m; draft 2.6 m.

Type: Cargo ship. MMSI: 273310600.

Date/timePositionNaut miles runAvg speedWind from/ knotsBaromVisibWave heightAir tempDewpointWater temp
2014-Aug-20 22:21N 59°57' E 030°24'4 5.4
2014-Aug-20 21:33N 59°55' E 030°16'2 1.5
2014-Aug-20 20:28N 59°54' E 030°14'0 0.0
2014-Aug-20 17:13N 59°54' E 030°14'0 0.0
2014-Aug-20 16:31N 59°54' E 030°14'0 0.0
2014-Aug-20 15:25N 59°54' E 030°14'0 0.0
2014-Aug-20 14:07N 59°54' E 030°14'0 0.0
2014-Aug-20 13:25N 59°54' E 030°14'0 0.0
2014-Aug-20 12:13N 59°54' E 030°14'0 0.0
2014-Aug-20 10:19N 59°54' E 030°14'0 0.0
2014-Aug-20 09:19N 59°54' E 030°14'0 0.0
2014-Aug-20 08:16N 59°54' E 030°14'0 0.0
2014-Aug-20 07:28N 59°54' E 030°14'103 4.9
2014-Aug-19 10:26N 59°59' E 026°47'8 8.1
2014-Aug-19 09:28N 59°58' E 026°32'  
2014-Aug-16 07:33N 60°00' E 026°22'8 8.1
2014-Aug-16 06:33N 60°02' E 026°38'106 7.5
2014-Aug-15 16:33N 59°56' E 030°09'3 0.2
2014-Aug-15 00:22N 59°54' E 030°13'6 7.5
2014-Aug-14 23:33N 59°57' E 030°23'  

Dump ship's entire track history